createdAt,value
2023-03-16T00:01:29.091Z,68.21
2023-03-16T00:03:57.443Z,68.16
2023-03-16T00:06:25.904Z,68.18
2023-03-16T00:08:59.153Z,68.00
2023-03-16T00:11:28.053Z,68.28
2023-03-16T00:13:56.391Z,68.09
2023-03-16T00:16:25.531Z,68.05
2023-03-16T00:18:53.948Z,68.51
2023-03-16T00:21:22.928Z,68.60
2023-03-16T00:23:53.607Z,68.64
2023-03-16T00:26:22.736Z,68.74
2023-03-16T00:28:54.504Z,68.53
2023-03-16T00:31:25.234Z,68.48
2023-03-16T00:33:53.796Z,68.65
2023-03-16T00:36:22.953Z,68.93
2023-03-16T00:38:51.567Z,68.86
2023-03-16T00:41:20.274Z,68.88
2023-03-16T00:43:49.109Z,69.05
2023-03-16T00:46:18.557Z,68.99
2023-03-16T00:48:47.715Z,69.09
2023-03-16T00:51:18.153Z,68.92
2023-03-16T00:53:47.533Z,69.12
2023-03-16T00:56:16.878Z,69.31
2023-03-16T00:58:45.695Z,69.43
2023-03-16T01:01:20.011Z,69.49
2023-03-16T01:03:49.908Z,69.63
2023-03-16T01:06:20.848Z,69.39
2023-03-16T01:08:49.984Z,69.37
2023-03-16T01:11:23.376Z,69.80
2023-03-16T01:13:54.578Z,69.69
2023-03-16T01:16:25.699Z,69.91
2023-03-16T01:18:54.601Z,70.10
2023-03-16T01:21:24.689Z,70.16
2023-03-16T01:23:54.080Z,69.85
2023-03-16T01:26:25.408Z,69.69
2023-03-16T01:28:55.148Z,69.83
2023-03-16T01:31:24.371Z,70.17
2023-03-16T01:33:53.223Z,70.17
2023-03-16T01:36:23.822Z,69.86
2023-03-16T01:39:00.328Z,70.32
2023-03-16T01:41:32.364Z,70.34
2023-03-16T01:44:00.705Z,70.35
2023-03-16T01:46:30.600Z,70.44
2023-03-16T01:49:17.249Z,70.46
2023-03-16T01:52:02.651Z,70.63
2023-03-16T01:54:35.890Z,70.41
2023-03-16T01:57:37.151Z,70.56
2023-03-16T02:00:18.724Z,70.48
2023-03-16T02:03:06.198Z,70.52
2023-03-16T02:05:43.742Z,70.46
2023-03-16T02:08:14.116Z,70.52
2023-03-16T02:10:45.174Z,70.61
2023-03-16T02:13:14.196Z,70.48
2023-03-16T02:15:42.457Z,70.15
2023-03-16T02:18:11.708Z,70.21
2023-03-16T02:20:49.421Z,70.43
2023-03-16T02:23:21.140Z,70.67
2023-03-16T02:26:01.973Z,70.50
2023-03-16T02:28:45.348Z,70.70
2023-03-16T02:31:14.578Z,70.47
2023-03-16T02:33:45.202Z,70.47
2023-03-16T02:36:15.558Z,70.48
2023-03-16T02:38:43.907Z,70.63
2023-03-16T02:41:15.282Z,70.56
2023-03-16T02:44:04.823Z,70.37
2023-03-16T02:46:38.428Z,70.12
2023-03-16T02:49:37.888Z,70.25
2023-03-16T02:52:08.163Z,70.32
2023-03-16T02:54:36.406Z,69.89
2023-03-16T02:57:05.151Z,69.95
2023-03-16T02:59:33.973Z,69.84
2023-03-16T03:02:02.717Z,70.23
2023-03-16T03:04:33.215Z,70.04
2023-03-16T03:07:05.140Z,70.14
2023-03-16T03:09:39.118Z,70.29
2023-03-16T03:12:08.194Z,70.44
2023-03-16T03:14:39.607Z,70.33
2023-03-16T03:17:10.338Z,70.21
2023-03-16T03:19:39.050Z,70.20
2023-03-16T03:22:07.762Z,70.31
2023-03-16T03:24:36.034Z,70.34
2023-03-16T03:30:43.793Z,70.36
2023-03-16T03:33:13.209Z,70.26
2023-03-16T03:35:42.405Z,70.48
2023-03-16T03:38:11.757Z,70.18
2023-03-16T03:40:40.667Z,69.97
2023-03-16T03:43:09.210Z,70.07
2023-03-16T03:45:39.601Z,70.04
2023-03-16T03:48:08.517Z,69.83
2023-03-16T03:50:38.705Z,69.54
2023-03-16T03:53:29.467Z,69.65
2023-03-16T03:56:17.656Z,69.74
2023-03-16T03:58:46.032Z,69.65
2023-03-16T04:01:17.606Z,69.59
2023-03-16T04:03:45.968Z,69.41
2023-03-16T04:06:15.587Z,69.41
2023-03-16T04:08:44.154Z,69.50
2023-03-16T04:11:14.232Z,69.49
2023-03-16T04:13:42.659Z,69.32
2023-03-16T04:16:11.481Z,69.37
2023-03-16T04:18:45.561Z,69.39
2023-03-16T04:21:18.523Z,69.17
2023-03-16T04:23:49.912Z,69.15
2023-03-16T04:26:18.580Z,69.22
2023-03-16T04:28:47.880Z,69.42
2023-03-16T04:31:17.936Z,69.59
2023-03-16T04:33:47.613Z,69.48
2023-03-16T04:36:15.969Z,69.26
2023-03-16T04:38:44.665Z,69.92
2023-03-16T04:41:13.508Z,70.09
2023-03-16T04:43:48.828Z,70.38
2023-03-16T04:46:22.813Z,70.56
2023-03-16T04:48:51.306Z,70.64
2023-03-16T04:51:19.682Z,70.55
2023-03-16T04:53:58.190Z,70.51
2023-03-16T04:56:31.845Z,70.59
2023-03-16T04:59:02.645Z,70.41
2023-03-16T05:01:33.972Z,70.52
2023-03-16T05:04:03.925Z,70.57
2023-03-16T05:06:33.504Z,70.60
2023-03-16T05:09:02.134Z,70.36
2023-03-16T05:11:30.998Z,70.58
2023-03-16T05:14:02.347Z,70.42
2023-03-16T05:16:32.388Z,70.52
2023-03-16T05:19:01.921Z,70.26
2023-03-16T05:21:32.344Z,70.45
2023-03-16T05:24:08.552Z,70.49
2023-03-16T05:26:37.195Z,70.42
2023-03-16T05:29:06.127Z,70.15
2023-03-16T05:31:36.422Z,70.19
2023-03-16T05:34:09.761Z,70.33
2023-03-16T05:36:39.707Z,70.59
2023-03-16T05:39:11.071Z,70.32
2023-03-16T05:41:44.049Z,70.13
2023-03-16T05:44:25.004Z,70.32
2023-03-16T05:47:05.751Z,70.18
2023-03-16T05:49:35.588Z,70.10
2023-03-16T05:52:06.335Z,70.10
2023-03-16T05:54:36.451Z,70.12
2023-03-16T05:57:07.746Z,69.98
2023-03-16T05:59:37.785Z,70.16
2023-03-16T06:02:07.246Z,70.27
2023-03-16T06:04:35.633Z,70.18
2023-03-16T06:07:04.429Z,70.18
2023-03-16T06:09:33.287Z,70.07
2023-03-16T06:12:04.301Z,69.82
2023-03-16T06:14:33.851Z,70.13
2023-03-16T06:17:02.519Z,70.08
2023-03-16T06:19:31.954Z,69.96
2023-03-16T06:22:01.755Z,70.03
2023-03-16T06:24:30.238Z,70.09
2023-03-16T06:26:58.828Z,70.21
2023-03-16T06:29:31.530Z,69.85
2023-03-16T06:32:00.378Z,69.78
2023-03-16T06:34:29.648Z,70.10
2023-03-16T06:36:58.274Z,70.12
2023-03-16T06:39:27.240Z,70.15
2023-03-16T06:41:56.159Z,70.11
2023-03-16T06:44:25.617Z,69.98
2023-03-16T06:47:06.578Z,70.21
2023-03-16T06:49:35.293Z,70.14
2023-03-16T06:52:04.274Z,70.30
2023-03-16T06:54:35.649Z,70.21
2023-03-16T06:57:04.670Z,70.20
2023-03-16T06:59:33.327Z,70.16
2023-03-16T07:02:02.353Z,70.18
2023-03-16T07:04:31.311Z,70.25
2023-03-16T07:06:59.973Z,69.80
2023-03-16T07:09:29.459Z,70.17
2023-03-16T07:11:58.257Z,70.27
2023-03-16T07:14:27.581Z,70.17
2023-03-16T07:16:56.868Z,69.97
2023-03-16T07:19:27.274Z,69.97
2023-03-16T07:21:57.763Z,70.27
2023-03-16T07:24:26.557Z,70.07
2023-03-16T07:26:58.264Z,69.73
2023-03-16T07:29:31.849Z,69.81
2023-03-16T07:32:02.125Z,69.77
2023-03-16T07:34:39.269Z,69.78
2023-03-16T07:37:09.488Z,69.71
2023-03-16T07:39:39.769Z,69.50
2023-03-16T07:42:12.694Z,69.48
2023-03-16T07:44:55.404Z,69.67
2023-03-16T07:47:26.614Z,69.55
2023-03-16T07:49:57.811Z,69.27
2023-03-16T07:52:26.544Z,69.20
2023-03-16T07:54:55.732Z,69.06
2023-03-16T07:57:24.884Z,69.08
2023-03-16T07:59:54.450Z,69.11
2023-03-16T08:02:23.409Z,68.77
2023-03-16T08:04:52.352Z,68.82
2023-03-16T08:07:20.731Z,69.00
2023-03-16T08:10:10.632Z,68.94
2023-03-16T08:12:45.019Z,68.73
2023-03-16T08:15:13.933Z,68.74
2023-03-16T08:17:42.500Z,68.69
2023-03-16T08:20:15.778Z,68.74
2023-03-16T08:22:46.877Z,68.66
2023-03-16T08:25:20.089Z,68.70
2023-03-16T08:28:13.758Z,68.58
2023-03-16T08:30:47.384Z,68.50
2023-03-16T08:33:52.126Z,68.27
2023-03-16T08:36:23.926Z,68.19
2023-03-16T08:39:06.706Z,68.04
2023-03-16T08:41:40.872Z,67.83
2023-03-16T08:44:14.768Z,67.88
2023-03-16T08:46:45.034Z,67.73
2023-03-16T08:49:14.934Z,67.71
2023-03-16T08:51:45.060Z,67.33
2023-03-16T08:54:14.097Z,67.51
2023-03-16T08:56:43.481Z,67.29
2023-03-16T08:59:27.011Z,66.83
2023-03-16T09:01:59.239Z,66.51
2023-03-16T09:04:28.893Z,66.37
2023-03-16T09:07:08.298Z,66.62
2023-03-16T09:09:38.359Z,66.58
2023-03-16T09:12:07.482Z,66.62
2023-03-16T09:14:38.805Z,66.13
2023-03-16T09:17:12.030Z,65.98
2023-03-16T09:19:51.625Z,65.95
2023-03-16T09:22:22.161Z,66.01
2023-03-16T09:24:51.415Z,65.66
2023-03-16T09:27:20.823Z,65.59
2023-03-16T09:29:51.198Z,65.44
2023-03-16T09:32:19.858Z,65.37
2023-03-16T09:34:49.625Z,65.30
2023-03-16T09:37:18.844Z,65.30
2023-03-16T09:39:48.893Z,65.05
2023-03-16T09:42:50.294Z,64.97
2023-03-16T09:45:32.389Z,64.97
2023-03-16T09:48:04.725Z,65.22
2023-03-16T09:50:48.345Z,65.07
2023-03-16T09:53:39.492Z,64.85
2023-03-16T09:56:15.210Z,64.70
2023-03-16T09:58:44.102Z,64.82
2023-03-16T10:01:36.199Z,65.01
2023-03-16T10:04:47.469Z,65.31
2023-03-16T10:07:53.503Z,65.72
2023-03-16T10:10:31.415Z,65.90
2023-03-16T10:13:01.876Z,66.28
2023-03-16T10:15:36.572Z,66.62
2023-03-16T10:18:18.454Z,66.60
2023-03-16T10:20:48.412Z,66.64
2023-03-16T10:23:25.367Z,66.66
2023-03-16T10:25:56.662Z,66.32
2023-03-16T10:28:30.046Z,66.18
2023-03-16T10:31:00.670Z,65.79
2023-03-16T10:33:36.903Z,65.58
2023-03-16T10:36:42.248Z,65.61
2023-03-16T10:39:13.734Z,65.67
2023-03-16T10:41:54.461Z,65.67
2023-03-16T10:44:28.953Z,65.45
2023-03-16T10:47:05.066Z,65.43
2023-03-16T10:49:48.965Z,65.51
2023-03-16T10:52:42.917Z,65.53
2023-03-16T10:55:24.634Z,65.13
2023-03-16T10:57:56.699Z,65.20
2023-03-16T11:00:43.818Z,64.86
2023-03-16T11:03:27.710Z,65.00
2023-03-16T11:05:59.337Z,64.63
2023-03-16T11:08:34.522Z,64.46
2023-03-16T11:11:26.266Z,64.28
2023-03-16T11:13:59.862Z,64.23
2023-03-16T11:16:37.593Z,64.54
2023-03-16T11:19:35.883Z,64.54
2023-03-16T11:22:38.609Z,64.46
2023-03-16T11:25:14.490Z,64.27
2023-03-16T11:27:54.468Z,64.31
2023-03-16T11:30:35.939Z,64.29
2023-03-16T11:33:10.699Z,64.33
2023-03-16T11:36:04.262Z,64.08
2023-03-16T11:38:57.526Z,63.90
2023-03-16T11:41:59.160Z,63.86
2023-03-16T11:44:42.164Z,63.73
2023-03-16T11:47:29.909Z,63.65
2023-03-16T11:50:15.824Z,63.21
2023-03-16T11:52:50.492Z,62.63
2023-03-16T11:55:31.798Z,62.41
2023-03-16T11:58:36.796Z,62.47
2023-03-16T12:01:22.737Z,63.50
2023-03-16T12:04:10.386Z,64.46
2023-03-16T12:07:10.995Z,64.93
2023-03-16T12:09:58.350Z,65.48
2023-03-16T12:12:46.618Z,66.19
2023-03-16T12:15:26.196Z,66.87
2023-03-16T12:18:01.035Z,67.10
2023-03-16T12:20:35.680Z,67.33
2023-03-16T12:23:15.118Z,67.28
2023-03-16T12:25:49.422Z,67.26
2023-03-16T12:28:26.264Z,66.84
2023-03-16T12:30:58.698Z,66.29
2023-03-16T12:33:40.052Z,65.68
2023-03-16T12:36:35.403Z,65.10
2023-03-16T12:39:13.850Z,64.16
2023-03-16T12:42:03.360Z,63.47
2023-03-16T12:44:48.177Z,63.16
2023-03-16T12:47:48.936Z,63.17
2023-03-16T12:50:20.539Z,62.85
2023-03-16T12:52:52.062Z,62.26
2023-03-16T12:55:45.357Z,61.70
2023-03-16T12:58:18.422Z,61.49
2023-03-16T13:00:57.465Z,60.89
2023-03-16T13:03:29.016Z,60.58
2023-03-16T13:06:01.029Z,60.49
2023-03-16T13:08:42.826Z,60.28
2023-03-16T13:11:12.901Z,60.30
2023-03-16T13:14:09.006Z,60.63
2023-03-16T13:16:39.594Z,60.59
2023-03-16T13:19:40.734Z,60.42
2023-03-16T13:22:31.678Z,59.96
2023-03-16T13:25:11.679Z,59.74
2023-03-16T13:27:41.406Z,59.71
2023-03-16T13:30:18.848Z,59.70
2023-03-16T13:32:49.718Z,59.67
2023-03-16T13:35:19.773Z,59.54
2023-03-16T13:37:49.540Z,59.67
2023-03-16T13:40:28.162Z,59.57
2023-03-16T13:42:58.413Z,59.59
2023-03-16T13:45:37.622Z,59.53
2023-03-16T13:48:06.151Z,59.39
2023-03-16T13:50:36.545Z,59.15
2023-03-16T13:53:33.085Z,59.16
2023-03-16T13:56:06.199Z,59.59
2023-03-16T13:58:40.406Z,60.01
2023-03-16T14:01:29.767Z,60.21
2023-03-16T14:04:08.941Z,60.57
2023-03-16T14:06:38.797Z,60.60
2023-03-16T14:09:21.955Z,60.10
2023-03-16T14:11:50.389Z,59.96
2023-03-16T14:14:29.099Z,59.82
2023-03-16T14:17:17.763Z,59.51
2023-03-16T14:19:53.699Z,59.45
2023-03-16T14:22:37.655Z,59.41
2023-03-16T14:25:07.239Z,59.47
2023-03-16T14:27:46.454Z,59.51
2023-03-16T14:30:24.366Z,59.71
2023-03-16T14:32:56.966Z,59.56
2023-03-16T14:35:29.434Z,59.22
2023-03-16T14:37:58.155Z,58.85
2023-03-16T14:40:32.556Z,58.62
2023-03-16T14:43:06.145Z,58.31
2023-03-16T14:45:36.734Z,58.30
2023-03-16T14:48:11.100Z,58.33
2023-03-16T14:50:39.911Z,58.45
2023-03-16T14:53:11.506Z,58.32
2023-03-16T14:55:40.791Z,58.55
2023-03-16T14:58:10.398Z,58.54
2023-03-16T15:00:52.276Z,58.77
2023-03-16T15:03:31.279Z,58.53
2023-03-16T15:06:01.700Z,58.51
2023-03-16T15:08:34.551Z,58.54
2023-03-16T15:11:06.981Z,58.59
2023-03-16T15:13:53.166Z,59.34
2023-03-16T15:16:23.448Z,60.59
2023-03-16T15:18:52.532Z,61.25
2023-03-16T15:21:24.305Z,61.67
2023-03-16T15:23:53.019Z,61.80
2023-03-16T15:26:28.571Z,61.56
2023-03-16T15:28:58.535Z,62.11
2023-03-16T15:31:27.670Z,62.19
2023-03-16T15:33:56.408Z,62.26
2023-03-16T15:36:26.776Z,61.97
2023-03-16T15:38:57.430Z,61.50
2023-03-16T15:41:30.077Z,60.54
2023-03-16T15:44:01.733Z,59.94
2023-03-16T15:46:30.143Z,59.84
2023-03-16T15:48:58.924Z,59.53
2023-03-16T15:51:30.684Z,59.52
2023-03-16T15:54:02.479Z,59.52
2023-03-16T15:56:53.215Z,59.37
2023-03-16T15:59:23.796Z,59.55
2023-03-16T16:05:32.662Z,59.59
2023-03-16T16:08:01.143Z,59.62
2023-03-16T16:10:30.502Z,59.94
2023-03-16T16:13:00.200Z,60.23
2023-03-16T16:15:34.057Z,60.53
2023-03-16T16:18:21.610Z,61.05
2023-03-16T16:20:51.593Z,61.08
2023-03-16T16:23:20.458Z,60.93
2023-03-16T16:25:50.855Z,60.84
2023-03-16T16:28:27.280Z,60.80
2023-03-16T16:30:57.147Z,60.84
2023-03-16T16:33:35.097Z,60.38
2023-03-16T16:36:06.517Z,60.43
2023-03-16T16:38:35.006Z,60.31
2023-03-16T16:41:08.771Z,60.25
2023-03-16T16:43:43.634Z,60.22
2023-03-16T16:46:19.879Z,60.21
2023-03-16T16:49:05.385Z,60.16
2023-03-16T16:51:34.604Z,60.17
2023-03-16T16:54:05.089Z,60.18
2023-03-16T16:56:36.871Z,59.95
2023-03-16T16:59:17.753Z,59.94
2023-03-16T17:01:48.955Z,60.31
2023-03-16T17:04:23.474Z,60.05
2023-03-16T17:06:55.856Z,59.78
2023-03-16T17:09:27.409Z,59.74
2023-03-16T17:11:59.045Z,59.46
2023-03-16T17:14:31.656Z,59.18
2023-03-16T17:17:03.024Z,58.88
2023-03-16T17:19:32.134Z,58.77
2023-03-16T17:22:01.669Z,58.66
2023-03-16T17:24:31.718Z,58.57
2023-03-16T17:27:02.074Z,58.74
2023-03-16T17:29:33.299Z,58.83
2023-03-16T17:32:05.316Z,59.03
2023-03-16T17:34:36.611Z,59.40
2023-03-16T17:37:12.830Z,59.61
2023-03-16T17:39:41.983Z,59.67
2023-03-16T17:42:19.288Z,59.45
2023-03-16T17:44:50.822Z,59.56
2023-03-16T17:47:23.272Z,59.49
2023-03-16T17:49:53.007Z,59.44
2023-03-16T17:52:25.557Z,59.44
2023-03-16T17:54:55.453Z,59.32
2023-03-16T17:57:33.526Z,59.17
2023-03-16T18:00:05.652Z,59.07
2023-03-16T18:02:50.037Z,59.15
2023-03-16T18:05:36.417Z,59.00
2023-03-16T18:08:38.139Z,58.87
2023-03-16T18:11:12.824Z,58.80
2023-03-16T18:13:43.766Z,58.62
2023-03-16T18:16:20.249Z,58.90
2023-03-16T18:18:52.509Z,59.38
2023-03-16T18:21:24.805Z,59.60
2023-03-16T18:23:56.502Z,59.81
2023-03-16T18:26:26.505Z,60.33
2023-03-16T18:28:59.531Z,60.64
2023-03-16T18:31:29.186Z,60.97
2023-03-16T18:34:03.101Z,61.30
2023-03-16T18:36:34.137Z,61.53
2023-03-16T18:39:15.970Z,61.49
2023-03-16T18:41:47.182Z,61.42
2023-03-16T18:44:22.804Z,61.40
2023-03-16T18:46:54.244Z,61.23
2023-03-16T18:49:29.865Z,61.23
2023-03-16T18:51:58.510Z,61.47
2023-03-16T18:54:30.887Z,61.44
2023-03-16T18:57:00.241Z,61.15
2023-03-16T18:59:29.787Z,61.02
2023-03-16T19:01:58.583Z,60.96
2023-03-16T19:04:30.235Z,60.95
2023-03-16T19:06:58.669Z,60.92
2023-03-16T19:09:30.433Z,61.03
2023-03-16T19:11:59.480Z,60.89
2023-03-16T19:14:32.340Z,60.59
2023-03-16T19:17:01.104Z,60.66
2023-03-16T19:19:34.759Z,60.60
2023-03-16T19:22:16.624Z,60.49
2023-03-16T19:24:56.267Z,60.62
2023-03-16T19:27:43.841Z,60.68
2023-03-16T19:30:34.306Z,60.86
2023-03-16T19:33:02.862Z,60.53
2023-03-16T19:35:50.445Z,60.27
2023-03-16T19:38:24.139Z,60.05
2023-03-16T19:40:56.788Z,59.82
2023-03-16T19:43:31.615Z,59.85
2023-03-16T19:46:00.803Z,59.70
2023-03-16T19:48:33.557Z,59.80
2023-03-16T19:51:02.528Z,59.60
2023-03-16T19:53:31.397Z,59.77
2023-03-16T19:55:59.987Z,59.89
2023-03-16T19:58:38.594Z,59.71
2023-03-16T20:01:17.727Z,59.60
2023-03-16T20:03:48.780Z,59.63
2023-03-16T20:06:24.004Z,59.63
2023-03-16T20:08:52.710Z,59.86
2023-03-16T20:11:30.656Z,59.92
2023-03-16T20:14:00.568Z,60.05
2023-03-16T20:16:36.599Z,60.16
2023-03-16T20:19:13.595Z,60.19
2023-03-16T20:21:43.287Z,60.20
2023-03-16T20:24:21.052Z,60.20
2023-03-16T20:26:52.574Z,60.12
2023-03-16T20:29:30.608Z,60.16
2023-03-16T20:32:01.523Z,60.57
2023-03-16T20:34:32.634Z,60.68
2023-03-16T20:37:01.340Z,61.26
2023-03-16T20:39:31.913Z,61.05
2023-03-16T20:42:00.473Z,61.03
2023-03-16T20:44:30.504Z,61.38
2023-03-16T20:46:59.007Z,61.43
2023-03-16T20:49:33.028Z,61.82
2023-03-16T20:52:01.647Z,61.92
2023-03-16T20:54:30.209Z,62.19
2023-03-16T20:56:58.486Z,62.31
2023-03-16T20:59:27.103Z,62.36
2023-03-16T21:01:55.978Z,62.31
2023-03-16T21:04:27.985Z,62.30
2023-03-16T21:06:57.101Z,62.72
2023-03-16T21:09:25.863Z,63.20
2023-03-16T21:11:55.818Z,63.41
2023-03-16T21:14:25.373Z,63.40
2023-03-16T21:16:55.106Z,63.48
2023-03-16T21:19:25.818Z,63.61
2023-03-16T21:21:55.037Z,63.69
2023-03-16T21:24:23.505Z,63.99
2023-03-16T21:26:52.615Z,64.05
2023-03-16T21:29:22.597Z,64.02
2023-03-16T21:31:51.924Z,64.00
2023-03-16T21:34:28.476Z,64.12
2023-03-16T21:36:56.834Z,64.42
2023-03-16T21:39:25.616Z,64.46
2023-03-16T21:41:54.258Z,64.38
2023-03-16T21:44:22.958Z,64.34
2023-03-16T21:46:51.950Z,64.30
2023-03-16T21:49:25.136Z,64.41
2023-03-16T21:51:57.686Z,64.39
2023-03-16T21:54:26.718Z,64.56
2023-03-16T21:56:57.929Z,64.30
2023-03-16T21:59:27.241Z,64.04
2023-03-16T22:02:01.938Z,64.13
2023-03-16T22:04:30.844Z,64.34
2023-03-16T22:06:59.284Z,64.22
2023-03-16T22:09:30.482Z,64.00
2023-03-16T22:11:59.035Z,63.84
2023-03-16T22:14:27.472Z,64.01
2023-03-16T22:16:57.074Z,64.08
2023-03-16T22:19:27.564Z,64.19
2023-03-16T22:21:57.482Z,64.38
2023-03-16T22:24:34.862Z,64.29
2023-03-16T22:27:04.579Z,64.21
2023-03-16T22:29:36.769Z,64.20
2023-03-16T22:32:14.828Z,64.48
2023-03-16T22:34:47.139Z,64.74
2023-03-16T22:37:21.602Z,64.88
2023-03-16T22:39:50.518Z,64.72
2023-03-16T22:42:38.858Z,64.88
2023-03-16T22:45:21.601Z,65.10
2023-03-16T22:47:50.365Z,65.22
2023-03-16T22:50:20.741Z,65.21
2023-03-16T22:52:51.503Z,65.21
2023-03-16T22:55:25.226Z,65.18
2023-03-16T22:58:03.068Z,65.04
2023-03-16T23:00:31.654Z,65.64
2023-03-16T23:03:00.125Z,65.67
2023-03-16T23:05:30.089Z,65.50
2023-03-16T23:08:02.713Z,65.49
2023-03-16T23:10:31.506Z,65.73
2023-03-16T23:13:00.620Z,65.73
2023-03-16T23:15:31.484Z,65.93
2023-03-16T23:18:00.116Z,65.86
2023-03-16T23:20:32.922Z,65.78
2023-03-16T23:23:01.289Z,65.79
2023-03-16T23:25:29.724Z,65.87
2023-03-16T23:28:04.018Z,66.20
2023-03-16T23:30:36.499Z,66.02
2023-03-16T23:33:05.961Z,66.08
2023-03-16T23:35:35.518Z,66.04
2023-03-16T23:38:05.346Z,66.08
2023-03-16T23:40:38.984Z,66.10
2023-03-16T23:43:08.938Z,66.30
2023-03-16T23:45:43.083Z,66.07
2023-03-16T23:48:19.135Z,65.98
2023-03-16T23:50:54.594Z,65.93
2023-03-16T23:53:24.293Z,65.84
2023-03-16T23:55:52.931Z,65.93
2023-03-16T23:58:21.314Z,66.01
